Terminal Aerodrome Forecast
Issued by NWS Melbourne, FL

Home | Current Version | Previous Version | Text Only | Print | Product List | Glossary On
Versions: 1 2 3 4 5 6 7 8 9 10 11 12 13 14 15 16 17 18 19
000
FTUS42 KMLB 232334
TAFDAB
TAF
KDAB 232334Z 2400/2424 16006KT P6SM VCTS SCT030CB BKN080
      TEMPO 2400/2401 VRB15G27KT 3SM TSRA BKN035CB
     FM240300 20004KT P6SM VCSH SCT025 BKN100 BKN250
     FM241000 21004KT P6SM SCT035 BKN070
     FM241200 24006KT P6SM VCSH BKN015
     FM241500 25006KT P6SM BKN025
     FM241800 32007KT P6SM SCT030 BKN080=

USA.gov is the U.S. government's official web portal to all federal, state and local government web resources and services.